createdAt,value
2017-04-03T00:00:54.344Z,1000.83
2017-04-03T00:01:54.378Z,1000.85
2017-04-03T00:02:54.407Z,1000.84
2017-04-03T00:03:54.431Z,1000.82
2017-04-03T00:04:54.460Z,1000.85
2017-04-03T00:05:54.483Z,1000.82
2017-04-03T00:06:54.516Z,1000.81
2017-04-03T00:07:54.540Z,1000.82
2017-04-03T00:08:54.571Z,1000.82
2017-04-03T00:09:54.600Z,1000.81
2017-04-03T00:10:54.625Z,1000.78
2017-04-03T00:11:54.652Z,1000.76
2017-04-03T00:12:54.681Z,1000.73
2017-04-03T00:13:54.712Z,1000.73
2017-04-03T00:14:54.734Z,1000.74
2017-04-03T00:15:54.759Z,1000.73
2017-04-03T00:16:54.827Z,1000.73
2017-04-03T00:17:54.822Z,1000.71
2017-04-03T00:18:54.845Z,1000.74
2017-04-03T00:19:54.875Z,1000.76
2017-04-03T00:20:54.899Z,1000.74
2017-04-03T00:21:54.929Z,1000.71
2017-04-03T00:22:54.956Z,1000.75
2017-04-03T00:23:54.988Z,1000.71
2017-04-03T00:24:55.014Z,1000.71
2017-04-03T00:25:55.041Z,1000.71
2017-04-03T00:26:55.068Z,1000.73
2017-04-03T00:27:55.097Z,1000.71
2017-04-03T00:28:55.123Z,1000.75
2017-04-03T00:29:55.151Z,1000.74
2017-04-03T00:30:55.180Z,1000.72
2017-04-03T00:31:55.208Z,1000.72
2017-04-03T00:32:55.233Z,1000.7
2017-04-03T00:33:55.261Z,1000.69
2017-04-03T00:34:55.286Z,1000.68
2017-04-03T00:35:55.320Z,1000.67
2017-04-03T00:36:55.344Z,1000.66
2017-04-03T00:37:55.373Z,1000.67
2017-04-03T00:38:55.399Z,1000.67
2017-04-03T00:39:55.420Z,1000.66
2017-04-03T00:40:55.450Z,1000.67
2017-04-03T00:41:55.483Z,1000.65
2017-04-03T00:42:55.510Z,1000.62
2017-04-03T00:43:55.536Z,1000.63
2017-04-03T00:44:55.565Z,1000.58
2017-04-03T00:45:55.598Z,1000.63
2017-04-03T00:46:55.620Z,1000.61
2017-04-03T00:47:55.649Z,1000.59
2017-04-03T00:48:55.676Z,1000.55
2017-04-03T00:49:55.703Z,1000.55
2017-04-03T00:50:55.731Z,1000.56
2017-04-03T00:51:55.760Z,1000.54
2017-04-03T00:52:55.784Z,1000.59
2017-04-03T00:53:55.812Z,1000.56
2017-04-03T00:54:55.837Z,1000.58
2017-04-03T00:55:55.863Z,1000.6
2017-04-03T00:56:55.896Z,1000.54
2017-04-03T00:57:55.923Z,1000.56
2017-04-03T00:58:55.947Z,1000.57
2017-04-03T00:59:55.977Z,1000.55
2017-04-03T01:00:56.011Z,1000.55
2017-04-03T01:01:56.037Z,1000.58
2017-04-03T01:02:56.059Z,1000.54
2017-04-03T01:03:56.088Z,1000.51
2017-04-03T01:04:56.368Z,1000.55
2017-04-03T01:05:56.137Z,1000.53
2017-04-03T01:06:56.171Z,1000.56
2017-04-03T01:07:56.199Z,1000.53
2017-04-03T01:08:56.223Z,1000.58
2017-04-03T01:09:56.504Z,1000.62
2017-04-03T01:10:56.281Z,1000.56
2017-04-03T01:11:56.309Z,1000.54
2017-04-03T01:12:56.334Z,1000.6
2017-04-03T01:13:56.363Z,1000.58
2017-04-03T01:14:56.392Z,1000.58
2017-04-03T01:15:56.412Z,1000.58
2017-04-03T01:16:56.446Z,1000.58
2017-04-03T01:17:56.470Z,1000.6
2017-04-03T01:18:56.500Z,1000.57
2017-04-03T01:19:56.529Z,1000.6
2017-04-03T01:20:56.552Z,1000.58
2017-04-03T01:21:56.582Z,1000.59
2017-04-03T01:22:56.607Z,1000.61
2017-04-03T01:23:56.639Z,1000.61
2017-04-03T01:24:56.663Z,1000.57
2017-04-03T01:25:56.689Z,1000.58
2017-04-03T01:26:56.721Z,1000.57
2017-04-03T01:27:56.747Z,1000.61
2017-04-03T01:28:56.774Z,1000.57
2017-04-03T01:29:56.801Z,1000.6
2017-04-03T01:30:56.829Z,1000.57
2017-04-03T01:31:56.857Z,1000.57
2017-04-03T01:32:56.885Z,1000.59
2017-04-03T01:33:56.912Z,1000.57
2017-04-03T01:34:56.940Z,1000.58
2017-04-03T01:35:56.965Z,1000.57
2017-04-03T01:36:56.998Z,1000.59
2017-04-03T01:37:57.022Z,1000.58
2017-04-03T01:38:57.050Z,1000.59
2017-04-03T01:39:57.076Z,1000.65
2017-04-03T01:40:57.103Z,1000.57
2017-04-03T01:41:57.133Z,1000.63
2017-04-03T01:42:57.158Z,1000.63
2017-04-03T01:43:57.187Z,1000.62
2017-04-03T01:44:57.252Z,1000.66
2017-04-03T01:45:57.240Z,1000.63
2017-04-03T01:46:57.268Z,1000.65
2017-04-03T01:47:57.297Z,1000.71
2017-04-03T01:48:57.327Z,1000.71
2017-04-03T01:49:57.349Z,1000.73
2017-04-03T01:50:57.379Z,1000.76
2017-04-03T01:51:57.405Z,1000.8
2017-04-03T01:52:57.433Z,1000.77
2017-04-03T01:53:57.462Z,1000.77
2017-04-03T01:54:57.486Z,1000.79
2017-04-03T01:55:57.516Z,1000.84
2017-04-03T01:56:57.544Z,1000.81
2017-04-03T01:57:57.568Z,1000.82
2017-04-03T01:58:57.597Z,1000.82
2017-04-03T01:59:57.624Z,1000.78
2017-04-03T02:00:57.651Z,1000.8
2017-04-03T02:01:57.679Z,1000.82
2017-04-03T02:02:57.707Z,1000.82
2017-04-03T02:03:57.734Z,1000.79
2017-04-03T02:04:57.763Z,1000.78
2017-04-03T02:05:57.791Z,1000.78
2017-04-03T02:06:57.815Z,1000.76
2017-04-03T02:07:57.844Z,1000.75
2017-04-03T02:08:57.869Z,1000.74
2017-04-03T02:09:57.898Z,1000.75
2017-04-03T02:10:57.930Z,1000.73
2017-04-03T02:11:57.950Z,1000.78
2017-04-03T02:12:57.979Z,1000.75
2017-04-03T02:13:58.009Z,1000.76
2017-04-03T02:14:58.034Z,1000.75
2017-04-03T02:15:58.064Z,1000.76
2017-04-03T02:16:58.091Z,1000.73
2017-04-03T02:17:58.117Z,1000.75
2017-04-03T02:18:58.145Z,1000.74
2017-04-03T02:19:58.170Z,1000.76
2017-04-03T02:20:58.198Z,1000.74
2017-04-03T02:21:58.223Z,1000.74
2017-04-03T02:22:58.252Z,1000.79
2017-04-03T02:23:58.281Z,1000.8
2017-04-03T02:24:58.310Z,1000.79
2017-04-03T02:25:58.335Z,1000.8
2017-04-03T02:26:58.363Z,1000.75
2017-04-03T02:27:58.392Z,1000.76
2017-04-03T02:28:58.416Z,1000.79
2017-04-03T02:29:58.445Z,1000.75
2017-04-03T02:30:58.468Z,1000.75
2017-04-03T02:31:58.499Z,1000.78
2017-04-03T02:32:58.528Z,1000.78
2017-04-03T02:33:58.548Z,1000.78
2017-04-03T02:34:58.581Z,1000.79
2017-04-03T02:35:58.611Z,1000.81
2017-04-03T02:36:58.630Z,1000.8
2017-04-03T02:37:58.663Z,1000.79
2017-04-03T02:38:58.687Z,1000.8
2017-04-03T02:39:58.716Z,1000.77
2017-04-03T02:40:58.741Z,1000.78
2017-04-03T02:41:58.770Z,1000.75
2017-04-03T02:42:58.799Z,1000.78
2017-04-03T02:43:58.827Z,1000.78
2017-04-03T02:44:58.853Z,1000.82
2017-04-03T02:45:58.880Z,1000.82
2017-04-03T02:46:58.906Z,1000.83
2017-04-03T02:47:58.935Z,1000.92
2017-04-03T02:48:58.964Z,1000.9
2017-04-03T02:49:58.987Z,1000.92
2017-04-03T02:50:59.016Z,1000.96
2017-04-03T02:51:59.041Z,1000.99
2017-04-03T02:52:59.071Z,1000.93
2017-04-03T02:53:59.098Z,1001
2017-04-03T02:54:59.124Z,1000.97
2017-04-03T02:55:59.152Z,1000.94
2017-04-03T02:56:59.177Z,1000.98
2017-04-03T02:57:59.207Z,1000.93
2017-04-03T02:58:59.236Z,1000.9
2017-04-03T02:59:59.263Z,1000.95
2017-04-03T03:00:59.289Z,1000.91
2017-04-03T03:01:59.320Z,1000.92
2017-04-03T03:02:59.341Z,1000.96
2017-04-03T03:03:59.367Z,1000.96
2017-04-03T03:04:59.396Z,1000.97
2017-04-03T03:05:59.426Z,1001
2017-04-03T03:06:59.449Z,1001.01
2017-04-03T03:07:59.471Z,1001
2017-04-03T03:08:59.506Z,1001.03
2017-04-03T03:09:59.540Z,1001.02
2017-04-03T03:10:59.560Z,1001.04
2017-04-03T03:11:59.589Z,1001.05
2017-04-03T03:12:59.617Z,1001.04
2017-04-03T03:13:59.642Z,1001.06
2017-04-03T03:14:59.667Z,1001.01
2017-04-03T03:15:59.696Z,1001.07
2017-04-03T03:16:59.723Z,1001.06
2017-04-03T03:17:59.749Z,1001.05
2017-04-03T03:18:59.778Z,1001.09
2017-04-03T03:19:59.807Z,1001.08
2017-04-03T03:20:59.832Z,1001.08
2017-04-03T03:21:59.860Z,1001.09
2017-04-03T03:22:59.881Z,1001.07
2017-04-03T03:23:59.914Z,1001.08
2017-04-03T03:24:59.942Z,1001.04
2017-04-03T03:26:00.215Z,1001.07
2017-04-03T03:26:59.993Z,1001.08
2017-04-03T03:28:00.021Z,1001.07
2017-04-03T03:29:00.049Z,1001.09
2017-04-03T03:30:00.078Z,1001.11
2017-04-03T03:31:00.352Z,1001.11
2017-04-03T03:32:00.134Z,1001.13
2017-04-03T03:33:00.161Z,1001.11
2017-04-03T03:34:00.185Z,1001.15
2017-04-03T03:35:00.257Z,1001.15
2017-04-03T03:36:00.487Z,1001.16
2017-04-03T03:37:00.268Z,1001.18
2017-04-03T03:38:00.291Z,1001.18
2017-04-03T03:39:00.323Z,1001.19
2017-04-03T03:40:00.346Z,1001.16
2017-04-03T03:41:00.375Z,1001.21
2017-04-03T03:42:00.400Z,1001.17
2017-04-03T03:43:00.428Z,1001.19
2017-04-03T03:44:00.457Z,1001.2
2017-04-03T03:45:00.482Z,1001.25
2017-04-03T03:46:00.511Z,1001.21
2017-04-03T03:47:00.535Z,1001.2
2017-04-03T03:48:00.564Z,1001.23
2017-04-03T03:49:00.593Z,1001.22
2017-04-03T03:50:00.619Z,1001.2
2017-04-03T03:51:00.647Z,1001.21
2017-04-03T03:52:00.671Z,1001.17
2017-04-03T03:53:00.700Z,1001.19
2017-04-03T03:54:00.727Z,1001.2
2017-04-03T03:55:00.753Z,1001.19
2017-04-03T03:56:00.782Z,1001.15
2017-04-03T03:57:00.806Z,1001.18
2017-04-03T03:58:00.836Z,1001.2
2017-04-03T03:59:00.860Z,1001.19
2017-04-03T04:00:00.888Z,1001.2
2017-04-03T04:01:00.918Z,1001.19
2017-04-03T04:02:00.942Z,1001.21
2017-04-03T04:03:00.971Z,1001.19
2017-04-03T04:04:00.996Z,1001.21
2017-04-03T04:05:01.024Z,1001.2
2017-04-03T04:06:01.044Z,1001.22
2017-04-03T04:07:01.077Z,1001.23
2017-04-03T04:08:01.107Z,1001.23
2017-04-03T04:09:01.131Z,1001.24
2017-04-03T04:10:01.160Z,1001.24
2017-04-03T04:11:01.184Z,1001.21
2017-04-03T04:12:01.214Z,1001.25
2017-04-03T04:13:01.242Z,1001.21
2017-04-03T04:14:01.267Z,1001.25
2017-04-03T04:15:01.296Z,1001.27
2017-04-03T04:16:01.321Z,1001.23
2017-04-03T04:17:01.349Z,1001.26
2017-04-03T04:18:01.374Z,1001.28
2017-04-03T04:19:01.403Z,1001.28
2017-04-03T04:20:01.427Z,1001.27
2017-04-03T04:21:01.456Z,1001.26
2017-04-03T04:22:01.486Z,1001.27
2017-04-03T04:23:01.512Z,1001.28
2017-04-03T04:24:01.534Z,1001.28
2017-04-03T04:25:01.559Z,1001.26
2017-04-03T04:26:01.588Z,1001.3
2017-04-03T04:27:01.618Z,1001.29
2017-04-03T04:28:01.640Z,1001.35
2017-04-03T04:29:01.671Z,1001.31
2017-04-03T04:30:01.700Z,1001.29
2017-04-03T04:31:01.724Z,1001.29
2017-04-03T04:32:01.753Z,1001.32
2017-04-03T04:33:01.781Z,1001.33
2017-04-03T04:34:01.806Z,1001.3
2017-04-03T04:35:01.832Z,1001.33
2017-04-03T04:36:01.861Z,1001.32
2017-04-03T04:37:01.889Z,1001.32
2017-04-03T04:38:01.914Z,1001.31
2017-04-03T04:39:01.942Z,1001.34
2017-04-03T04:40:01.971Z,1001.31
2017-04-03T04:41:01.996Z,1001.37
2017-04-03T04:42:02.025Z,1001.32
2017-04-03T04:43:02.049Z,1001.35
2017-04-03T04:44:02.078Z,1001.37
2017-04-03T04:45:02.103Z,1001.34
2017-04-03T04:46:02.132Z,1001.35
2017-04-03T04:47:02.160Z,1001.39
2017-04-03T04:48:02.186Z,1001.35
2017-04-03T04:49:02.213Z,1001.39
2017-04-03T04:50:02.240Z,1001.38
2017-04-03T04:51:02.267Z,1001.41
2017-04-03T04:52:02.296Z,1001.43
2017-04-03T04:53:02.323Z,1001.46
2017-04-03T04:54:02.349Z,1001.37
2017-04-03T04:55:02.375Z,1001.41
2017-04-03T04:56:02.399Z,1001.44
2017-04-03T04:57:02.428Z,1001.41
2017-04-03T04:58:02.456Z,1001.42
2017-04-03T04:59:02.482Z,1001.41
2017-04-03T05:00:02.510Z,1001.4
2017-04-03T05:01:02.535Z,1001.42
2017-04-03T05:02:02.564Z,1001.4
2017-04-03T05:03:02.593Z,1001.41
2017-04-03T05:04:02.616Z,1001.4
2017-04-03T05:05:02.645Z,1001.41
2017-04-03T05:06:02.667Z,1001.44
2017-04-03T05:07:02.699Z,1001.44
2017-04-03T05:08:02.724Z,1001.43
2017-04-03T05:09:02.754Z,1001.43
2017-04-03T05:10:02.782Z,1001.42
2017-04-03T05:11:02.805Z,1001.45
2017-04-03T05:12:02.835Z,1001.43
2017-04-03T05:13:02.858Z,1001.44
2017-04-03T05:14:02.888Z,1001.43
2017-04-03T05:15:02.917Z,1001.47
2017-04-03T05:16:02.943Z,1001.48
2017-04-03T05:17:03.218Z,1001.51
2017-04-03T05:18:02.996Z,1001.52
2017-04-03T05:19:03.021Z,1001.52
2017-04-03T05:20:03.047Z,1001.52
2017-04-03T05:21:03.082Z,1001.52
2017-04-03T05:22:03.354Z,1001.54
2017-04-03T05:23:03.132Z,1001.52
2017-04-03T05:24:03.156Z,1001.53
2017-04-03T05:25:03.227Z,1001.57
2017-04-03T05:26:03.210Z,1001.51
2017-04-03T05:27:03.489Z,1001.53
2017-04-03T05:28:03.268Z,1001.53
2017-04-03T05:29:03.298Z,1001.55
2017-04-03T05:30:03.317Z,1001.57
2017-04-03T05:31:03.345Z,1001.54
2017-04-03T05:32:03.625Z,1001.58
2017-04-03T05:33:03.398Z,1001.56
2017-04-03T05:34:03.424Z,1001.57
2017-04-03T05:35:03.455Z,1001.62
2017-04-03T05:36:03.480Z,1001.62
2017-04-03T05:37:03.760Z,1001.64
2017-04-03T05:38:03.533Z,1001.64
2017-04-03T05:39:03.563Z,1001.68
2017-04-03T05:40:03.588Z,1001.68
2017-04-03T05:41:03.615Z,1001.69
2017-04-03T05:42:03.892Z,1001.72
2017-04-03T05:43:03.670Z,1001.67
2017-04-03T05:44:03.699Z,1001.68
2017-04-03T05:45:03.724Z,1001.7
2017-04-03T05:46:03.753Z,1001.65
2017-04-03T05:47:04.033Z,1001.7
2017-04-03T05:48:03.807Z,1001.69
2017-04-03T05:49:03.830Z,1001.69
2017-04-03T05:50:03.863Z,1001.69
2017-04-03T05:51:03.888Z,1001.69
2017-04-03T05:52:04.165Z,1001.67
2017-04-03T05:53:03.941Z,1001.68
2017-04-03T05:54:03.970Z,1001.63
2017-04-03T05:55:03.996Z,1001.63
2017-04-03T05:56:04.024Z,1001.7
2017-04-03T05:57:04.310Z,1001.68
2017-04-03T05:58:04.079Z,1001.71
2017-04-03T05:59:04.103Z,1001.7
2017-04-03T06:00:04.127Z,1001.72
2017-04-03T06:01:04.160Z,1001.74
2017-04-03T06:02:04.436Z,1001.74
2017-04-03T06:03:04.214Z,1001.73
2017-04-03T06:04:04.243Z,1001.73
2017-04-03T06:05:04.268Z,1001.73
2017-04-03T06:06:04.292Z,1001.71
2017-04-03T06:07:04.577Z,1001.78
2017-04-03T06:08:04.345Z,1001.74
2017-04-03T06:09:04.374Z,1001.81
2017-04-03T06:10:04.399Z,1001.8
2017-04-03T06:11:04.427Z,1001.76
2017-04-03T06:12:04.456Z,1001.75
2017-04-03T06:13:04.480Z,1001.75
2017-04-03T06:14:04.508Z,1001.75
2017-04-03T06:15:04.538Z,1001.76
2017-04-03T06:16:04.567Z,1001.79
2017-04-03T06:17:04.592Z,1001.81
2017-04-03T06:18:04.621Z,1001.83
2017-04-03T06:19:04.645Z,1001.84
2017-04-03T06:20:04.675Z,1001.82
2017-04-03T06:21:04.707Z,1001.88
2017-04-03T06:22:04.727Z,1001.91
2017-04-03T06:23:04.753Z,1001.88
2017-04-03T06:24:04.782Z,1001.84
2017-04-03T06:25:04.810Z,1001.88
2017-04-03T06:26:04.838Z,1001.89
2017-04-03T06:27:04.864Z,1001.87
2017-04-03T06:28:04.892Z,1001.92
2017-04-03T06:29:04.917Z,1001.89
2017-04-03T06:30:04.945Z,1001.91
2017-04-03T06:31:04.970Z,1001.94
2017-04-03T06:32:04.998Z,1001.91
2017-04-03T06:33:05.028Z,1001.95
2017-04-03T06:34:05.052Z,1001.93
2017-04-03T06:35:05.083Z,1001.91
2017-04-03T06:36:05.110Z,1001.91
2017-04-03T06:37:05.135Z,1001.89
2017-04-03T06:38:05.164Z,1001.94
2017-04-03T06:39:05.189Z,1001.89
2017-04-03T06:40:05.219Z,1001.93
2017-04-03T06:41:05.247Z,1001.89
2017-04-03T06:42:05.270Z,1001.89
2017-04-03T06:43:05.298Z,1001.91
2017-04-03T06:44:05.325Z,1001.96
2017-04-03T06:45:05.353Z,1001.95
2017-04-03T06:46:05.379Z,1001.93
2017-04-03T06:47:05.407Z,1001.94
2017-04-03T06:48:05.435Z,1001.94
2017-04-03T06:49:05.456Z,1001.96
2017-04-03T06:50:05.490Z,1001.95
2017-04-03T06:51:05.514Z,1002
2017-04-03T06:52:05.542Z,1001.95
2017-04-03T06:53:05.567Z,1001.99
2017-04-03T06:54:05.595Z,1002
2017-04-03T06:55:05.625Z,1002.01
2017-04-03T06:56:05.655Z,1002.05
2017-04-03T06:57:05.678Z,1002.01
2017-04-03T06:58:05.705Z,1001.99
2017-04-03T06:59:05.727Z,1002.03
2017-04-03T07:00:05.760Z,1002.01
2017-04-03T07:01:05.784Z,1002.08
2017-04-03T07:02:05.814Z,1002.01
2017-04-03T07:03:05.842Z,1001.99
2017-04-03T07:04:05.868Z,1002.02
2017-04-03T07:05:05.896Z,1001.99
2017-04-03T07:06:05.921Z,1002.01
2017-04-03T07:07:05.949Z,1002.04
2017-04-03T07:08:05.978Z,1002.01
2017-04-03T07:09:06.003Z,1001.95
2017-04-03T07:10:06.030Z,1002
2017-04-03T07:11:06.064Z,1002.01
2017-04-03T07:12:06.086Z,1002
2017-04-03T07:13:06.114Z,1002.01
2017-04-03T07:14:06.135Z,1002.02
2017-04-03T07:15:06.168Z,1002.04
2017-04-03T07:16:06.192Z,1002.06
2017-04-03T07:17:06.220Z,1002.04
2017-04-03T07:18:06.249Z,1002.06
2017-04-03T07:19:06.274Z,1002.03
2017-04-03T07:20:06.304Z,1002.02
2017-04-03T07:21:06.329Z,1002.03
2017-04-03T07:22:06.357Z,1002.05
2017-04-03T07:23:06.381Z,1002.07
2017-04-03T07:24:06.411Z,1002.1
2017-04-03T07:25:06.439Z,1002.07
2017-04-03T07:26:06.459Z,1002.07
2017-04-03T07:27:06.492Z,1002.09
2017-04-03T07:28:06.521Z,1002.06
2017-04-03T07:29:06.542Z,1002.09
2017-04-03T07:30:06.574Z,1002.1
2017-04-03T07:31:06.601Z,1002.1
2017-04-03T07:32:06.629Z,1002.05
2017-04-03T07:33:06.660Z,1002.04
2017-04-03T07:34:06.677Z,1002.04
2017-04-03T07:35:06.707Z,1002.08
2017-04-03T07:36:06.734Z,1002.1
2017-04-03T07:37:06.760Z,1002.09
2017-04-03T07:38:06.787Z,1002.07
2017-04-03T07:39:06.817Z,1002.09
2017-04-03T07:40:06.847Z,1002.08
2017-04-03T07:41:06.871Z,1002.09
2017-04-03T07:42:06.899Z,1002.08
2017-04-03T07:43:07.172Z,1002.09
2017-04-03T07:44:06.952Z,1002.1
2017-04-03T07:45:06.978Z,1002.13
2017-04-03T07:46:07.006Z,1002.14
2017-04-03T07:47:07.035Z,1002.16
2017-04-03T07:48:07.308Z,1002.17
2017-04-03T07:49:07.089Z,1002.2
2017-04-03T07:50:07.117Z,1002.24
2017-04-03T07:51:07.142Z,1002.34
2017-04-03T07:52:07.172Z,1002.22
2017-04-03T07:53:07.452Z,1002.27
2017-04-03T07:54:07.222Z,1002.17
2017-04-03T07:55:07.254Z,1002.12
2017-04-03T07:56:07.283Z,1002.16
2017-04-03T07:57:07.307Z,1002.18
2017-04-03T07:58:07.584Z,1002.18
2017-04-03T07:59:07.364Z,1002.18
2017-04-03T08:00:07.388Z,1002.18
2017-04-03T08:01:07.418Z,1002.23
2017-04-03T08:02:07.447Z,1002.22
2017-04-03T08:03:07.472Z,1002.22
2017-04-03T08:04:07.499Z,1002.2
2017-04-03T08:05:07.530Z,1002.22
2017-04-03T08:06:07.554Z,1002.24
2017-04-03T08:07:07.584Z,1002.23
2017-04-03T08:08:07.608Z,1002.25
2017-04-03T08:09:07.636Z,1002.19
2017-04-03T08:10:07.664Z,1002.24
2017-04-03T08:11:07.690Z,1002.21
2017-04-03T08:12:07.719Z,1002.23
2017-04-03T08:13:07.747Z,1002.23
2017-04-03T08:14:07.768Z,1002.24
2017-04-03T08:15:07.800Z,1002.27
2017-04-03T08:16:07.829Z,1002.16
2017-04-03T08:17:07.855Z,1002.22
2017-04-03T08:18:07.888Z,1002.19
2017-04-03T08:19:07.912Z,1002.16
2017-04-03T08:20:07.937Z,1002.18
2017-04-03T08:21:07.965Z,1002.16
2017-04-03T08:22:07.989Z,1002.19
2017-04-03T08:23:08.018Z,1002.12
2017-04-03T08:24:08.048Z,1002.17
2017-04-03T08:25:08.073Z,1002.12
2017-04-03T08:26:08.097Z,1002.12
2017-04-03T08:27:08.130Z,1002.11
2017-04-03T08:28:08.153Z,1002.11
2017-04-03T08:29:08.182Z,1002.13
2017-04-03T08:30:08.212Z,1002.12
2017-04-03T08:31:08.232Z,1002.13
2017-04-03T08:32:08.266Z,1002.19
2017-04-03T08:33:08.294Z,1002.18
2017-04-03T08:34:08.320Z,1002.19
2017-04-03T08:35:08.347Z,1002.14
2017-04-03T08:36:08.375Z,1002.17
2017-04-03T08:37:08.401Z,1002.17
2017-04-03T08:38:08.429Z,1002.2
2017-04-03T08:39:08.458Z,1002.16
2017-04-03T08:40:08.485Z,1002.18
2017-04-03T08:41:08.513Z,1002.13
2017-04-03T08:42:08.543Z,1002.15
2017-04-03T08:43:08.566Z,1002.19
2017-04-03T08:44:08.595Z,1002.14
2017-04-03T08:45:08.623Z,1002.17
2017-04-03T08:46:08.644Z,1002.15
2017-04-03T08:47:08.676Z,1002.18
2017-04-03T08:48:08.705Z,1002.18
2017-04-03T08:49:08.732Z,1002.16
2017-04-03T08:50:08.759Z,1002.17
2017-04-03T08:51:08.788Z,1002.09
2017-04-03T08:52:08.813Z,1002.14
2017-04-03T08:53:08.841Z,1002.15
2017-04-03T08:54:08.870Z,1002.1
2017-04-03T08:55:08.894Z,1002.17
2017-04-03T08:56:08.923Z,1002.12
2017-04-03T08:57:08.952Z,1002.17
2017-04-03T08:58:08.981Z,1002.16
2017-04-03T08:59:09.007Z,1002.22
2017-04-03T09:00:09.034Z,1002.17
2017-04-03T09:01:09.064Z,1002.18
2017-04-03T09:02:09.088Z,1002.25
2017-04-03T09:03:09.159Z,1002.23
2017-04-03T09:04:09.145Z,1002.18
2017-04-03T09:05:09.170Z,1002.18
2017-04-03T09:06:09.194Z,1002.17
2017-04-03T09:07:09.227Z,1002.16
2017-04-03T09:08:09.256Z,1002.14
2017-04-03T09:09:09.282Z,1002.1
2017-04-03T09:10:09.309Z,1002.1
2017-04-03T09:11:09.335Z,1002.08
2017-04-03T09:12:09.363Z,1002.01
2017-04-03T09:13:09.391Z,1002.01
2017-04-03T09:14:09.419Z,1002.03
2017-04-03T09:15:09.449Z,1002.06
2017-04-03T09:16:09.470Z,1002.05
2017-04-03T09:17:09.504Z,1002.07
2017-04-03T09:18:09.532Z,1002.09
2017-04-03T09:19:09.561Z,1002.05
2017-04-03T09:20:09.584Z,1002.06
2017-04-03T09:21:09.614Z,1002.06
2017-04-03T09:22:09.643Z,1002.05
2017-04-03T09:23:09.672Z,1002.03
2017-04-03T09:24:09.700Z,1002.05
2017-04-03T09:25:09.729Z,1002.05
2017-04-03T09:26:09.753Z,1002.04
2017-04-03T09:27:09.783Z,1002.03
2017-04-03T09:28:09.811Z,1002.11
2017-04-03T09:29:10.092Z,1002.02
2017-04-03T09:30:09.869Z,1002.02
2017-04-03T09:31:09.897Z,1002.04
2017-04-03T09:32:09.922Z,1002.08
2017-04-03T09:33:09.951Z,1002.06
2017-04-03T09:34:10.231Z,1002.06
2017-04-03T09:35:10.005Z,1002.05
2017-04-03T09:36:10.040Z,1002.06
2017-04-03T09:37:10.066Z,1001.99
2017-04-03T09:38:10.091Z,1001.98
2017-04-03T09:39:10.372Z,1002
2017-04-03T09:40:10.149Z,1002
2017-04-03T09:41:10.178Z,1001.98
2017-04-03T09:42:10.206Z,1001.98
2017-04-03T09:43:10.235Z,1002.04
2017-04-03T09:44:10.511Z,1002.04
2017-04-03T09:45:10.288Z,1002.02
2017-04-03T09:46:10.317Z,1001.98
2017-04-03T09:47:10.346Z,1001.97
2017-04-03T09:48:10.375Z,1001.94
2017-04-03T09:49:10.655Z,1001.92
2017-04-03T09:50:10.434Z,1001.96
2017-04-03T09:51:10.462Z,1001.98
2017-04-03T09:52:10.485Z,1001.94
2017-04-03T09:53:10.511Z,1001.97
2017-04-03T09:54:10.543Z,1001.96
2017-04-03T09:55:10.571Z,1001.91
2017-04-03T09:56:10.600Z,1001.89
2017-04-03T09:57:10.629Z,1001.96
2017-04-03T09:58:10.653Z,1001.95
2017-04-03T09:59:10.685Z,1001.96
2017-04-03T10:00:10.707Z,1001.94
2017-04-03T10:01:10.740Z,1001.97
2017-04-03T10:02:10.769Z,1001.98
2017-04-03T10:03:10.797Z,1002.03
2017-04-03T10:04:10.826Z,1001.93
2017-04-03T10:05:10.852Z,1001.98
2017-04-03T10:06:10.884Z,1001.93
2017-04-03T10:07:10.912Z,1001.97
2017-04-03T10:08:10.941Z,1001.93
2017-04-03T10:09:10.971Z,1001.97
2017-04-03T10:10:10.994Z,1001.98
2017-04-03T10:11:11.020Z,1001.93
2017-04-03T10:12:11.051Z,1001.9
2017-04-03T10:13:11.081Z,1001.88
2017-04-03T10:14:11.110Z,1001.96
2017-04-03T10:15:11.138Z,1001.98
2017-04-03T10:16:11.169Z,1001.97
2017-04-03T10:17:11.197Z,1001.95
2017-04-03T10:18:11.226Z,1001.91
2017-04-03T10:19:11.255Z,1001.89
2017-04-03T10:20:11.278Z,1001.9
2017-04-03T10:21:11.310Z,1001.91
2017-04-03T10:22:11.336Z,1001.92
2017-04-03T10:23:11.365Z,1001.88
2017-04-03T10:24:11.394Z,1001.91
2017-04-03T10:25:11.421Z,1001.92
2017-04-03T10:26:11.451Z,1001.85
2017-04-03T10:27:11.480Z,1001.85
2017-04-03T10:28:11.508Z,1001.89
2017-04-03T10:29:11.537Z,1001.83
2017-04-03T10:30:11.566Z,1001.83
2017-04-03T10:31:11.595Z,1001.84
2017-04-03T10:32:11.619Z,1001.81
2017-04-03T10:33:11.648Z,1001.87
2017-04-03T10:34:11.680Z,1001.9
2017-04-03T10:35:11.710Z,1001.88
2017-04-03T10:36:11.741Z,1001.84
2017-04-03T10:37:11.768Z,1001.82
2017-04-03T10:38:11.793Z,1001.79
2017-04-03T10:39:11.820Z,1001.78
2017-04-03T10:40:11.853Z,1001.75
2017-04-03T10:41:11.882Z,1001.76
2017-04-03T10:42:11.910Z,1001.83
2017-04-03T10:43:11.935Z,1001.79
2017-04-03T10:44:11.970Z,1001.79
2017-04-03T10:45:11.997Z,1001.77
2017-04-03T10:46:12.021Z,1001.7
2017-04-03T10:47:12.050Z,1001.69
2017-04-03T10:48:12.078Z,1001.75
2017-04-03T10:49:12.113Z,1001.79
2017-04-03T10:50:12.135Z,1001.78
2017-04-03T10:51:12.162Z,1001.82
2017-04-03T10:52:12.193Z,1001.73
2017-04-03T10:53:12.227Z,1001.74
2017-04-03T10:54:12.251Z,1001.79
2017-04-03T10:55:12.281Z,1001.75
2017-04-03T10:56:12.313Z,1001.7
2017-04-03T10:57:12.339Z,1001.69
2017-04-03T10:58:12.368Z,1001.71
2017-04-03T10:59:12.396Z,1001.68
2017-04-03T11:00:12.425Z,1001.69
2017-04-03T11:01:12.452Z,1001.76
2017-04-03T11:02:12.483Z,1001.7
2017-04-03T11:03:12.512Z,1001.69
2017-04-03T11:04:12.541Z,1001.69
2017-04-03T11:05:12.569Z,1001.68
2017-04-03T11:06:12.595Z,1001.73
2017-04-03T11:07:12.623Z,1001.7
2017-04-03T11:08:12.654Z,1001.72
2017-04-03T11:09:12.683Z,1001.75
2017-04-03T11:10:12.707Z,1001.73
2017-04-03T11:11:12.740Z,1001.69
2017-04-03T11:12:12.767Z,1001.7
2017-04-03T11:13:12.798Z,1001.64
2017-04-03T11:14:12.828Z,1001.64
2017-04-03T11:15:12.856Z,1001.65
2017-04-03T11:16:12.883Z,1001.71
2017-04-03T11:17:12.913Z,1001.65
2017-04-03T11:18:12.942Z,1001.64
2017-04-03T11:19:12.965Z,1001.67
2017-04-03T11:20:12.995Z,1001.63
2017-04-03T11:21:13.024Z,1001.64
2017-04-03T11:22:13.053Z,1001.61
2017-04-03T11:23:13.081Z,1001.61
2017-04-03T11:24:13.110Z,1001.59
2017-04-03T11:25:13.138Z,1001.6
2017-04-03T11:26:13.168Z,1001.58
2017-04-03T11:27:13.197Z,1001.56
2017-04-03T11:28:13.225Z,1001.61
2017-04-03T11:29:13.250Z,1001.58
2017-04-03T11:30:13.284Z,1001.61
2017-04-03T11:31:13.312Z,1001.66
2017-04-03T11:32:13.340Z,1001.6
2017-04-03T11:33:13.370Z,1001.61
2017-04-03T11:34:13.398Z,1001.56
2017-04-03T11:35:13.426Z,1001.59
2017-04-03T11:36:13.457Z,1001.54
2017-04-03T11:37:13.481Z,1001.48
2017-04-03T11:38:13.514Z,1001.48
2017-04-03T11:39:13.541Z,1001.5
2017-04-03T11:40:13.570Z,1001.49
2017-04-03T11:41:13.598Z,1001.49
2017-04-03T11:42:13.623Z,1001.49
2017-04-03T11:43:13.657Z,1001.49
2017-04-03T11:44:13.725Z,1001.49
2017-04-03T11:45:13.710Z,1001.45
2017-04-03T11:46:13.740Z,1001.45
2017-04-03T11:47:13.767Z,1001.45
2017-04-03T11:48:13.796Z,1001.48
2017-04-03T11:49:13.825Z,1001.43
2017-04-03T11:50:13.854Z,1001.38
2017-04-03T11:51:13.883Z,1001.8
2017-04-03T11:52:13.911Z,1001.86
2017-04-03T11:53:13.940Z,1001.84
2017-04-03T11:54:13.973Z,1001.83
2017-04-03T11:55:14.249Z,1001.85
2017-04-03T11:56:14.027Z,1001.82
2017-04-03T11:57:14.056Z,1001.84
2017-04-03T11:58:14.084Z,1001.86
2017-04-03T11:59:14.114Z,1001.9
2017-04-03T12:00:14.392Z,1001.87
2017-04-03T12:01:14.171Z,1001.9
2017-04-03T12:02:14.198Z,1001.97
2017-04-03T12:03:14.231Z,1001.99
2017-04-03T12:04:14.255Z,1002.04
2017-04-03T12:05:14.541Z,1002.03
2017-04-03T12:06:14.318Z,1002.14
2017-04-03T12:07:14.351Z,1002.24
2017-04-03T12:08:14.380Z,1002.28
2017-04-03T12:09:14.407Z,1002.48